Language selection

Weather shortcuts

Atlantic - Newfoundland: Past 24 Hour Conditions

 

Natashquan Airport

04:00 AM EST 21 February 2024
Disclaimer

This table is a summary of hourly weather conditions for the past 24 hours.
Please note that these observations might not always be representative of weather conditions over their associated marine area.

Date / Time
(EST)
Wind(knots) Conditions Visibility(km) Pressure(kPa) Air tempC) Relative humidity(%) Dew pointC) Wind Chill
21 February 2024
4:00 WNW 9 Clear 16 103.0 -20 56 -26 -29
3:00 WNW 12 Clear 16 102.9 -17 54 -25 -28
2:00 W 12 Clear 16 102.9 -17 52 -25 -27
1:00 WNW 12 Clear 16 102.8 -17 50 -25 -27
0:00 WNW 10 gusts 15 Clear 16 102.7 -17 51 -25 -26
20 February 2024
23:00 WNW 10 gusts 19 Clear 16 102.6 -16 52 -24 -25
22:00 WNW 14 gusts 21 Clear 16 102.5 -16 50 -24 -26
21:00 WNW 13 gusts 18 Clear 16 102.4 -15 49 -24 -25
20:00 WNW 10 Clear 16 102.3 -15 44 -24 -23
19:00 WNW 10 gusts 15 Clear 16 102.2 -14 42 -24 -23
18:00 WNW 10 Clear 16 102.0 -14 45 -23 -22
17:00 WNW 10 gusts 19 Clear 16 101.9 -13 43 -22 -21
16:00 WNW 16 gusts 25 Sunny 16 101.8 -11 44 -21 -21
15:00 W 19 gusts 25 Sunny 16 101.7 -11 45 -20 -21
14:00 W 20 gusts 29 Sunny 16 101.6 -12 48 -20 -22
13:00 W 19 gusts 25 Sunny 16 101.6 -12 51 -20 -22
12:00 W 16 gusts 22 Sunny 16 101.5 -12 49 -21 -22
11:00 WNW 17 gusts 25 Sunny 16 101.5 -13 46 -22 -24
10:00 WNW 16 gusts 22 Sunny 16 101.6 -15 50 -23 -26
9:00 W 19 Sunny 16 101.5 -15 52 -23 -27
8:00 WNW 15 gusts 23 Sunny 16 101.5 -15 56 -22 -26
7:00 WNW 18 Sunny 16 101.5 -16 57 -22 -27
6:00 WNW 16 gusts 22 Clear 16 101.4 -16 57 -22 -27
5:00 WNW 13 gusts 20 Clear 16 101.4 -16 60 -22 -26
4:00 WNW 12 gusts 21 Clear 16 101.3 -15 59 -22 -25

Zoom-in to make a selection

Map of Atlantic - Newfoundland marine weather areas Banquereau - 44139 East Chedabucto Bay – 44488 West Chedabucto Bay – 44489 Blanc-Sablon Airport Cap Whittle Chevery Natashquan Airport Heath Point Îles de la Madeleine Airport Miscou Island Eskasoni (First Nations) Grand Étang Ingonish Beach North Mountain St.Paul Island J.A. Douglas McCurdy Sydney Airport Charlottetown Airport East Point North Cape Argentia Berry Hill Bonavista Burgeo Cape Race Corner Brook Daniel's Harbour Englee Ferolle Point La Scie Port aux Basques Sagona Island St. Anthony Airport St. John's Int'l Airport St. Lawrence Stephenville Airport Twillingate Winterland Branch Hill Wreckhouse Grates Cove Pool's Island Marticot Island Long Pond Cartwright Airport Mary's Harbour
Legend:
buoy Buoy
land station Land Station

Atlantic - Newfoundland Area

Another Region

Date modified: